Time;durP1;ratioP1;P1;durP2;ratioP2;P2;SDS_P1;SDS_P2;PMS_P1;PMS_P2;Temp;Humidity;BMP_temperature;BMP_pressure;BME280_temperature;BME280_humidity;BME280_pressure;Samples;Min_cycle;Max_cycle;Signal;HPM_P1;HPM_P2
2022/07/13 00:01:08;;;;;;;0.53;0.53;;;;;;;20.78;49.49;98989.63;1694787;83;21543;-60
2022/07/13 00:03:36;;;;;;;6.40;0.80;;;;;;;20.84;49.47;98985.52;1689358;83;28535;-60
2022/07/13 00:06:03;;;;;;;0.75;0.62;;;;;;;20.85;49.37;98987.69;1695187;83;21606;-60
2022/07/13 00:08:29;;;;;;;1.37;1.00;;;;;;;20.83;49.28;98978.98;1685047;83;21607;-60
2022/07/13 00:10:57;;;;;;;1.40;1.00;;;;;;;20.78;49.47;98976.27;1682124;83;21573;-60
2022/07/13 00:13:25;;;;;;;1.65;0.95;;;;;;;20.78;49.40;98962.07;1683783;83;21429;-60
2022/07/13 00:15:53;;;;;;;1.50;0.62;;;;;;;20.75;49.68;98961.02;1691115;83;21439;-60
2022/07/13 00:18:19;;;;;;;0.98;0.75;;;;;;;20.79;49.71;98957.06;1696664;82;21494;-60
2022/07/13 00:20:47;;;;;;;1.95;0.70;;;;;;;20.84;49.57;98954.80;1699442;82;21486;-61
2022/07/13 00:23:13;;;;;;;4.60;0.90;;;;;;;20.83;49.53;98954.94;1694189;82;21832;-60
2022/07/13 00:25:40;;;;;;;2.45;0.60;;;;;;;20.80;49.55;98954.25;1694354;83;21558;-60
2022/07/13 00:28:07;;;;;;;3.15;0.70;;;;;;;20.75;49.55;98949.00;1697051;83;21637;-60
2022/07/13 00:30:34;;;;;;;3.22;0.75;;;;;;;20.71;49.71;98945.78;1704391;82;21517;-60
2022/07/13 00:33:01;;;;;;;2.05;0.75;;;;;;;20.71;49.87;98940.94;1686930;82;21591;-60
2022/07/13 00:35:28;;;;;;;2.25;0.70;;;;;;;20.75;49.83;98934.31;1697625;83;21924;-60
2022/07/13 00:37:55;;;;;;;0.80;0.70;;;;;;;20.76;49.85;98930.16;1692461;82;21455;-60
2022/07/13 00:40:22;;;;;;;1.12;0.70;;;;;;;20.80;49.71;98929.38;1694395;82;21633;-60
2022/07/13 00:42:49;;;;;;;1.20;0.70;;;;;;;20.73;49.78;98932.28;1694138;82;21531;-61
2022/07/13 00:45:16;;;;;;;1.98;0.93;;;;;;;20.70;49.70;98927.23;1693791;83;21680;-60
2022/07/13 00:47:43;;;;;;;0.88;0.80;;;;;;;20.67;49.81;98924.87;1694074;83;21767;-60
2022/07/13 00:50:10;;;;;;;2.33;0.60;;;;;;;20.64;50.11;98923.81;1693866;82;21655;-60
2022/07/13 00:52:37;;;;;;;0.70;0.70;;;;;;;20.64;50.20;98920.64;1691746;82;21037;-61
2022/07/13 00:55:06;;;;;;;1.53;0.90;;;;;;;20.74;50.01;98913.95;1696641;82;21736;-61
2022/07/13 00:57:34;;;;;;;1.80;0.72;;;;;;;20.75;49.86;98910.27;1690231;83;21522;-60
2022/07/13 01:00:08;;;;;;;2.17;0.78;;;;;;;20.70;50.02;98907.20;1694830;82;21819;-61
2022/07/13 01:02:43;;;;;;;1.25;0.90;;;;;;;20.57;49.99;98912.37;1694064;82;21534;-60
2022/07/13 01:05:10;;;;;;;1.77;0.70;;;;;;;20.60;49.95;98904.08;1682146;83;21549;-61
2022/07/13 01:07:37;;;;;;;1.02;0.72;;;;;;;20.57;50.11;98903.52;1680873;83;21538;-60
2022/07/13 01:10:07;;;;;;;2.05;0.68;;;;;;;20.56;50.19;98903.99;1672846;83;21494;-60
2022/07/13 01:12:35;;;;;;;1.70;0.80;;;;;;;20.65;50.08;98898.81;1687068;83;21833;-60
2022/07/13 01:15:05;;;;;;;1.85;0.90;;;;;;;20.65;49.89;98897.47;1681706;83;20961;-60
2022/07/13 01:17:35;;;;;;;2.22;1.00;;;;;;;20.59;49.89;98897.54;1684956;82;21545;-60
2022/07/13 01:20:02;;;;;;;3.17;0.62;;;;;;;20.55;49.87;98886.78;1673656;83;21455;-60
2022/07/13 01:22:42;;;;;;;2.33;0.70;;;;;;;20.53;49.88;98888.28;1679827;83;21001;-60
2022/07/13 01:25:10;;;;;;;2.00;0.62;;;;;;;20.56;49.90;98881.80;1681057;83;21839;-60
2022/07/13 01:27:38;;;;;;;2.40;0.80;;;;;;;20.61;49.94;98876.89;1689311;82;21476;-60
2022/07/13 01:30:06;;;;;;;3.27;0.77;;;;;;;20.62;49.96;98874.55;1689296;82;21676;-61
2022/07/13 01:32:46;;;;;;;1.07;0.80;;;;;;;20.65;49.74;98874.77;1686446;83;21758;-61
2022/07/13 01:35:14;;;;;;;2.00;0.80;;;;;;;20.61;49.71;98864.87;1684057;83;21550;-61
2022/07/13 01:37:43;;;;;;;2.60;1.05;;;;;;;20.63;49.68;98868.74;1702142;83;21445;-61
2022/07/13 01:40:12;;;;;;;1.75;0.80;;;;;;;20.56;49.88;98875.13;1679560;83;21577;-61
2022/07/13 01:42:51;;;;;;;1.47;0.75;;;;;;;20.57;50.04;98870.14;1689243;82;21542;-61
2022/07/13 01:45:22;;;;;;;0.88;0.80;;;;;;;20.59;50.20;98866.33;1688118;83;21591;-61
2022/07/13 01:48:10;;;;;;;1.40;0.90;;;;;;;20.63;50.07;98866.91;1576768;89;21123;-61
2022/07/13 01:50:38;;;;;;;4.87;0.90;;;;;;;20.61;49.95;98864.38;1575742;89;21587;-61
2022/07/13 01:53:05;;;;;;;2.58;0.78;;;;;;;20.53;50.14;98860.72;1594618;89;21572;-61
2022/07/13 01:55:31;;;;;;;2.25;0.98;;;;;;;20.56;50.27;98867.95;1587331;88;21564;-61
2022/07/13 01:57:59;;;;;;;1.20;0.77;;;;;;;20.53;50.64;98863.39;1573926;88;21466;-62
2022/07/13 02:00:26;;;;;;;1.35;0.78;;;;;;;20.55;50.94;98861.41;1594653;89;21468;-61
2022/07/13 02:02:52;;;;;;;1.72;0.62;;;;;;;20.51;51.17;98858.23;1592193;89;21885;-62
2022/07/13 02:05:21;;;;;;;1.62;0.80;;;;;;;20.50;51.56;98847.69;1595450;88;21522;-61
2022/07/13 02:07:48;;;;;;;4.70;0.80;;;;;;;20.50;51.56;98847.69;1577195;89;21633;-61
2022/07/13 02:10:17;;;;;;;1.55;0.72;;;;;;;20.42;51.74;98846.59;1582446;88;21829;-61
2022/07/13 02:12:44;;;;;;;3.02;0.70;;;;;;;20.41;51.70;98850.23;1593882;88;21576;-62
2022/07/13 02:15:11;;;;;;;0.90;0.60;;;;;;;20.42;52.01;98855.11;1642729;84;21831;-61
2022/07/13 02:17:41;;;;;;;1.27;0.70;;;;;;;20.36;51.99;98850.33;1631390;84;21435;-62
2022/07/13 02:20:09;;;;;;;1.60;0.60;;;;;;;20.37;52.09;98849.36;1646899;84;21616;-61
2022/07/13 02:22:43;;;;;;;3.60;0.70;;;;;;;20.33;52.20;98839.97;1651068;86;21435;-63
2022/07/13 02:25:13;;;;;;;4.42;0.95;;;;;;;20.36;52.12;98843.19;1650334;84;21523;-61
2022/07/13 02:28:04;;;;;;;5.60;0.93;;;;;;;20.38;52.36;98845.69;1612680;86;21810;-61
2022/07/13 02:30:31;;;;;;;4.50;0.80;;;;;;;20.34;52.06;98837.16;1624557;86;21593;-61
2022/07/13 02:32:59;;;;;;;1.95;0.70;;;;;;;20.27;52.28;98841.40;1634928;86;21125;-61
2022/07/13 02:35:26;;;;;;;1.60;0.78;;;;;;;20.25;52.38;98836.70;1639325;85;21558;-61
2022/07/13 02:37:52;;;;;;;0.62;0.60;;;;;;;20.16;52.66;98836.25;1630523;86;21564;-61
2022/07/13 02:40:19;;;;;;;0.93;0.78;;;;;;;20.16;53.13;98833.58;1640029;85;22057;-61
2022/07/13 02:42:47;;;;;;;1.17;0.60;;;;;;;20.19;53.22;98838.61;1655598;84;21672;-61
2022/07/13 02:45:14;;;;;;;2.73;0.83;;;;;;;20.17;53.30;98836.11;1657142;85;21585;-61
2022/07/13 02:47:42;;;;;;;2.67;0.80;;;;;;;20.19;53.34;98831.94;1652826;86;21946;-61
2022/07/13 02:50:10;;;;;;;6.08;0.90;;;;;;;20.22;53.28;98831.14;1655386;84;21655;-61
2022/07/13 02:52:37;;;;;;;7.75;0.80;;;;;;;20.18;53.50;98844.95;1657871;85;21882;-61
2022/07/13 02:55:05;;;;;;;2.47;0.98;;;;;;;20.14;53.88;98845.73;1661984;85;21088;-61
2022/07/13 02:57:32;;;;;;;;;;;;;;;20.04;53.92;98838.23;1664638;85;21053;-62
2022/07/13 02:59:59;;;;;;;2.27;0.53;;;;;;;20.09;54.31;98834.64;1662435;85;20157;-61
2022/07/13 03:02:27;;;;;;;4.95;0.57;;;;;;;20.10;53.83;98834.14;1663829;85;21448;-61
2022/07/13 03:04:54;;;;;;;1.42;0.70;;;;;;;20.08;54.25;98831.64;1659888;85;21939;-61
2022/07/13 03:07:20;;;;;;;2.50;0.60;;;;;;;20.07;54.41;98827.78;1658955;85;21454;-61
2022/07/13 03:09:49;;;;;;;0.65;0.65;;;;;;;20.08;54.63;98825.45;1666005;84;21522;-62
2022/07/13 03:12:16;;;;;;;2.00;0.70;;;;;;;20.01;54.93;98823.37;1663628;85;21593;-61
2022/07/13 03:14:44;;;;;;;;;;;;;;;19.99;55.19;98823.18;1654545;85;21580;-61
2022/07/13 03:17:11;;;;;;;2.65;0.68;;;;;;;19.96;55.50;98819.45;1663254;85;21889;-61
2022/07/13 03:19:38;;;;;;;0.85;0.60;;;;;;;19.93;55.85;98821.94;1632817;86;20989;-61
2022/07/13 03:22:05;;;;;;;0.82;0.68;;;;;;;19.96;55.56;98811.45;1633402;85;21453;-62
2022/07/13 03:24:32;;;;;;;2.37;0.73;;;;;;;19.98;55.65;98808.14;1661338;84;21428;-61
2022/07/13 03:26:59;;;;;;;1.17;0.60;;;;;;;19.99;55.76;98801.84;1656807;85;21049;-61
2022/07/13 03:29:26;;;;;;;2.33;0.70;;;;;;;19.99;56.01;98804.50;1653422;84;21961;-62
2022/07/13 03:31:53;;;;;;;0.75;0.70;;;;;;;19.93;56.03;98807.73;1625809;85;21566;-61
2022/07/13 03:34:20;;;;;;;4.08;0.82;;;;;;;19.83;56.03;98803.77;1644943;86;21439;-61
2022/07/13 03:36:48;;;;;;;1.32;0.70;;;;;;;19.82;56.18;98810.11;1647824;86;21456;-61
2022/07/13 03:39:15;;;;;;;5.53;0.93;;;;;;;19.77;56.39;98801.19;1650364;86;21585;-61
2022/07/13 03:41:42;;;;;;;0.75;0.55;;;;;;;19.77;56.53;98804.36;1647259;86;22078;-61
2022/07/13 03:44:09;;;;;;;1.60;0.70;;;;;;;19.81;56.60;98800.41;1626923;86;20986;-61
2022/07/13 03:46:36;;;;;;;2.37;0.70;;;;;;;19.85;56.64;98791.13;1623876;86;28701;-61
2022/07/13 03:49:04;;;;;;;1.27;0.53;;;;;;;19.86;56.60;98799.98;1658460;86;21569;-61
2022/07/13 03:51:31;;;;;;;0.70;0.70;;;;;;;19.87;56.84;98788.31;1656521;86;21592;-62
2022/07/13 03:53:58;;;;;;;1.60;0.80;;;;;;;19.85;56.77;98789.79;1617552;86;21856;-61
2022/07/13 03:56:25;;;;;;;0.70;0.30;;;;;;;19.92;56.53;98788.73;1643290;86;21585;-61
2022/07/13 03:58:51;;;;;;;1.35;0.50;;;;;;;19.79;56.85;98784.55;1629552;86;21407;-61
2022/07/13 04:01:19;;;;;;;0.72;0.50;;;;;;;19.88;56.56;98789.52;1643252;85;21536;-61
2022/07/13 04:03:47;;;;;;;2.90;0.72;;;;;;;19.89;56.57;98791.67;1649490;86;21017;-61
2022/07/13 04:06:14;;;;;;;2.50;0.80;;;;;;;19.93;56.57;98797.06;1624235;85;27249;-61
2022/07/13 04:08:41;;;;;;;2.50;0.65;;;;;;;20.00;56.59;98787.49;1617763;87;20977;-61
2022/07/13 04:11:08;;;;;;;0.70;0.53;;;;;;;20.04;56.34;98790.20;1631355;85;21550;-61
2022/07/13 04:13:35;;;;;;;3.07;0.80;;;;;;;20.10;56.24;98780.30;1629688;87;20981;-61
2022/07/13 04:16:02;;;;;;;0.85;0.50;;;;;;;20.07;56.26;98783.25;1630365;85;21640;-61
2022/07/13 04:18:31;;;;;;;0.60;0.50;;;;;;;20.08;56.24;98788.09;1629559;86;22125;-62
2022/07/13 04:21:00;;;;;;;0.60;0.57;;;;;;;20.15;55.99;98782.52;1633852;86;21668;-61
2022/07/13 04:23:30;;;;;;;0.40;0.40;;;;;;;20.11;56.15;98784.64;1627664;86;21454;-60
2022/07/13 04:25:57;;;;;;;1.15;0.50;;;;;;;20.17;56.11;98781.40;1629726;86;21550;-62
2022/07/13 04:28:24;;;;;;;0.90;0.42;;;;;;;20.18;56.23;98783.06;1628627;86;21617;-61
2022/07/13 04:30:52;;;;;;;0.42;0.33;;;;;;;20.18;56.29;98784.40;1639471;86;21929;-60
2022/07/13 04:33:21;;;;;;;1.10;0.57;;;;;;;20.22;56.43;98774.27;1637613;86;20990;-61
2022/07/13 04:35:48;;;;;;;3.20;0.72;;;;;;;20.24;56.64;98776.30;1609390;88;21677;-61
2022/07/13 04:38:15;;;;;;;1.98;0.60;;;;;;;20.30;56.28;98774.86;1643295;85;21503;-61
2022/07/13 04:40:42;;;;;;;0.68;0.42;;;;;;;20.32;56.21;98770.20;1604132;87;21491;-62
2022/07/13 04:43:09;;;;;;;1.02;0.65;;;;;;;20.28;56.49;98763.50;1619010;88;21733;-61
2022/07/13 04:45:36;;;;;;;2.00;0.60;;;;;;;20.34;56.47;98771.77;1613694;88;21559;-61
2022/07/13 04:48:04;;;;;;;1.07;0.30;;;;;;;20.45;56.26;98769.86;1644361;86;21604;-62
2022/07/13 04:50:32;;;;;;;0.80;0.40;;;;;;;20.52;56.27;98767.77;1651908;86;22065;-61
2022/07/13 04:53:00;;;;;;;0.85;0.60;;;;;;;20.54;56.28;98755.11;1648225;85;21433;-62
2022/07/13 04:55:28;;;;;;;1.02;0.65;;;;;;;20.53;56.04;98761.45;1653212;84;22080;-62
2022/07/13 04:57:56;;;;;;;3.77;0.85;;;;;;;20.57;55.65;98761.49;1634832;86;21576;-63
2022/07/13 05:00:23;;;;;;;1.70;0.72;;;;;;;20.56;55.94;98760.30;1601932;88;21550;-61
2022/07/13 05:02:50;;;;;;;0.85;0.37;;;;;;;20.49;56.13;98763.22;1652686;86;21447;-63
2022/07/13 05:05:17;;;;;;;0.85;0.40;;;;;;;20.57;55.76;98760.16;1651999;86;21601;-62
2022/07/13 05:07:44;;;;;;;0.72;0.40;;;;;;;20.58;55.63;98764.99;1597836;88;21849;-62
2022/07/13 05:10:11;;;;;;;3.07;0.50;;;;;;;20.57;55.32;98755.32;1648879;86;21554;-61
2022/07/13 05:12:40;;;;;;;0.47;0.35;;;;;;;20.65;55.14;98747.41;1613582;88;21591;-61
2022/07/13 05:15:10;;;;;;;1.95;0.60;;;;;;;20.62;55.47;98753.05;1604217;87;21580;-62
2022/07/13 05:17:37;;;;;;;0.57;0.40;;;;;;;20.70;55.35;98753.62;1638671;85;21550;-60
2022/07/13 05:20:05;;;;;;;0.80;0.42;;;;;;;20.63;55.00;98743.23;1634386;85;22111;-61
2022/07/13 05:22:34;;;;;;;0.82;0.50;;;;;;;20.61;54.94;98742.03;1644015;86;21041;-60
2022/07/13 05:25:02;;;;;;;;;;;;;;;20.57;55.06;98744.64;1647391;86;21503;-60
2022/07/13 05:27:29;;;;;;;0.45;0.45;;;;;;;20.58;55.54;98744.97;1646354;86;20407;-60
2022/07/13 05:29:56;;;;;;;0.80;0.53;;;;;;;20.59;55.54;98752.00;1621894;87;21510;-61
2022/07/13 05:32:22;;;;;;;2.92;0.70;;;;;;;20.61;55.65;98754.05;1628809;85;22236;-61
2022/07/13 05:34:49;;;;;;;0.45;0.40;;;;;;;20.68;55.65;98747.12;1624799;87;21582;-63
2022/07/13 05:37:17;;;;;;;0.45;0.40;;;;;;;20.64;55.33;98743.55;1659367;85;21521;-60
2022/07/13 05:39:45;;;;;;;0.30;0.30;;;;;;;20.51;55.66;98739.41;1657023;86;21465;-61
2022/07/13 05:42:13;;;;;;;1.20;0.68;;;;;;;20.64;55.51;98744.38;1655446;86;21569;-62
2022/07/13 05:44:40;;;;;;;0.95;0.50;;;;;;;20.60;56.09;98743.84;1651052;86;21871;-61
2022/07/13 05:47:08;;;;;;;1.37;0.68;;;;;;;20.60;56.09;98743.84;1661099;84;21682;-60
2022/07/13 05:49:35;;;;;;;0.68;0.50;;;;;;;20.60;55.95;98749.19;1657773;84;21494;-60
2022/07/13 05:52:03;;;;;;;0.82;0.53;;;;;;;20.65;56.05;98743.91;1655341;84;21654;-60
2022/07/13 05:54:30;;;;;;;0.75;0.55;;;;;;;20.68;56.46;98762.28;1643054;84;21163;-60
2022/07/13 05:56:57;;;;;;;1.27;0.40;;;;;;;20.67;56.38;98745.93;1655502;84;21885;-60
2022/07/13 05:59:24;;;;;;;0.60;0.50;;;;;;;20.47;56.41;98721.98;1655376;86;21548;-60
2022/07/13 06:01:51;;;;;;;0.70;0.68;;;;;;;20.64;56.96;98748.89;1657014;86;21436;-60
2022/07/13 06:04:18;;;;;;;1.02;0.68;;;;;;;20.74;56.33;98742.50;1653599;84;21531;-59
2022/07/13 06:06:44;;;;;;;0.55;0.55;;;;;;;20.78;56.31;98740.36;1660265;85;21494;-59
2022/07/13 06:09:12;;;;;;;2.62;0.70;;;;;;;20.76;56.35;98737.84;1657239;85;21632;-60
2022/07/13 06:11:39;;;;;;;3.67;0.70;;;;;;;20.69;56.73;98740.77;1632814;85;21494;-60
2022/07/13 06:14:06;;;;;;;1.10;0.70;;;;;;;20.67;57.01;98736.58;1620170;86;21584;-61
2022/07/13 06:16:33;;;;;;;1.32;0.78;;;;;;;20.67;57.05;98732.58;1630687;85;23088;-61
2022/07/13 06:19:00;;;;;;;2.35;0.60;;;;;;;20.85;56.68;98733.89;1626012;86;21500;-59
2022/07/13 06:21:28;;;;;;;2.92;0.80;;;;;;;20.87;56.87;98733.24;1635571;85;21947;-61
2022/07/13 06:23:54;;;;;;;3.02;0.60;;;;;;;20.91;57.01;98742.66;1637830;85;21617;-60
2022/07/13 06:26:21;;;;;;;1.87;0.60;;;;;;;20.93;56.46;98729.98;1633939;85;21531;-60
2022/07/13 06:28:48;;;;;;;1.12;0.40;;;;;;;20.94;56.55;98728.46;1651222;86;21495;-61
2022/07/13 06:31:14;;;;;;;1.10;0.65;;;;;;;20.96;56.47;98727.84;1612210;87;21507;-60
2022/07/13 06:33:42;;;;;;;1.12;0.70;;;;;;;20.83;56.78;98731.37;1638640;85;21830;-61
2022/07/13 06:36:09;;;;;;;0.50;0.47;;;;;;;20.90;56.90;98725.77;1638307;86;20989;-60
2022/07/13 06:38:36;;;;;;;1.57;0.70;;;;;;;20.97;57.18;98724.16;1634896;85;21530;-60
2022/07/13 06:41:04;;;;;;;0.70;0.70;;;;;;;20.97;56.80;98726.00;1635864;86;21592;-60
2022/07/13 06:43:32;;;;;;;0.70;0.70;;;;;;;21.00;56.84;98727.00;1640193;86;21461;-61
2022/07/13 06:45:59;;;;;;;1.57;0.57;;;;;;;21.06;56.97;98726.88;1639471;86;21796;-63
2022/07/13 06:48:26;;;;;;;;;;;;;;;20.87;56.97;98693.17;1641983;85;21498;-61
2022/07/13 06:50:53;;;;;;;1.52;0.75;;;;;;;21.08;57.21;98727.56;1641842;85;20437;-60
2022/07/13 06:53:19;;;;;;;0.95;0.70;;;;;;;21.01;57.21;98734.04;1646978;85;21628;-59
2022/07/13 06:55:47;;;;;;;0.62;0.62;;;;;;;21.16;56.97;98739.67;1638576;85;21505;-60
2022/07/13 06:58:14;;;;;;;1.10;0.80;;;;;;;21.15;57.16;98734.84;1614996;87;21841;-60
2022/07/13 07:00:41;;;;;;;4.08;0.70;;;;;;;21.23;57.16;98736.73;1619310;87;20998;-60
2022/07/13 07:03:07;;;;;;;0.65;0.62;;;;;;;21.16;57.46;98736.50;1613245;87;21593;-60
2022/07/13 07:05:34;;;;;;;0.70;0.70;;;;;;;21.30;57.11;98727.06;1645113;86;21049;-59
2022/07/13 07:08:02;;;;;;;2.90;1.22;;;;;;;21.33;56.87;98735.28;1637394;86;21466;-59
2022/07/13 07:10:28;;;;;;;;;;;;;;;21.33;56.80;98737.45;1610540;87;21813;-59
2022/07/13 07:12:56;;;;;;;2.30;0.50;;;;;;;21.34;56.92;98733.80;1624861;86;20463;-61
2022/07/13 07:15:23;;;;;;;;;;;;;;;21.36;56.73;98746.98;1636596;86;21545;-61
2022/07/13 07:17:50;;;;;;;0.53;0.50;;;;;;;21.30;56.84;98738.27;1635507;86;20484;-62
2022/07/13 07:20:17;;;;;;;0.40;0.40;;;;;;;21.32;56.94;98742.48;1625527;86;21605;-61
2022/07/13 07:22:45;;;;;;;0.53;0.42;;;;;;;21.38;56.82;98741.02;1623875;86;21793;-61
2022/07/13 07:25:13;;;;;;;1.00;0.50;;;;;;;21.49;57.21;98742.59;1631868;86;21041;-61
2022/07/13 07:27:40;;;;;;;0.98;0.55;;;;;;;21.57;57.33;98734.64;1610127;87;21574;-62
2022/07/13 07:30:08;;;;;;;0.50;0.50;;;;;;;21.60;57.81;98740.16;1645685;86;21485;-60
2022/07/13 07:32:35;;;;;;;0.40;0.40;;;;;;;21.70;57.12;98736.39;1652713;84;21464;-61
2022/07/13 07:35:02;;;;;;;1.27;0.50;;;;;;;21.74;57.20;98731.06;1658310;84;21815;-61
2022/07/13 07:37:29;;;;;;;0.50;0.50;;;;;;;21.80;56.93;98739.45;1652560;86;22499;-60
2022/07/13 07:39:56;;;;;;;0.62;0.50;;;;;;;21.77;56.86;98732.09;1655546;86;21535;-61
2022/07/13 07:42:22;;;;;;;0.85;0.60;;;;;;;21.69;57.17;98732.02;1632010;86;21073;-61
2022/07/13 07:44:50;;;;;;;0.60;0.60;;;;;;;21.67;57.20;98736.70;1636884;86;21569;-61
2022/07/13 07:47:16;;;;;;;0.42;0.42;;;;;;;21.65;57.25;98726.66;1640174;85;21818;-61
2022/07/13 07:49:43;;;;;;;0.50;0.40;;;;;;;21.67;57.30;98721.98;1643123;85;21450;-60
2022/07/13 07:52:10;;;;;;;1.22;0.62;;;;;;;21.71;57.90;98734.03;1626214;85;21573;-61
2022/07/13 07:54:36;;;;;;;0.50;0.50;;;;;;;21.71;57.26;98723.34;1624403;86;21525;-61
2022/07/13 07:57:03;;;;;;;0.72;0.70;;;;;;;21.71;56.92;98725.19;1643950;84;21199;-61
2022/07/13 07:59:30;;;;;;;1.07;0.77;;;;;;;21.71;57.10;98735.37;1641251;84;21822;-60
2022/07/13 08:01:59;;;;;;;3.55;0.75;;;;;;;21.74;57.15;98733.73;1626052;87;21447;-60
2022/07/13 08:04:25;;;;;;;1.02;0.60;;;;;;;21.76;57.12;98728.23;1655323;85;21509;-60
2022/07/13 08:06:52;;;;;;;0.50;0.50;;;;;;;21.81;57.24;98735.77;1616565;86;21018;-60
2022/07/13 08:09:19;;;;;;;0.70;0.70;;;;;;;21.75;56.96;98727.87;1645964;86;21543;-59
2022/07/13 08:11:45;;;;;;;0.72;0.60;;;;;;;21.95;56.89;98731.98;1637605;86;22035;-60
2022/07/13 08:14:13;;;;;;;1.00;0.78;;;;;;;22.00;57.18;98744.04;1647824;86;21501;-60
2022/07/13 08:16:39;;;;;;;0.65;0.65;;;;;;;22.06;56.91;98732.20;1652539;85;20983;-60
2022/07/13 08:19:06;;;;;;;3.92;1.32;;;;;;;22.06;56.91;98732.20;1648394;86;21533;-61
2022/07/13 08:21:34;;;;;;;1.12;0.80;;;;;;;22.10;57.24;98741.58;1627889;86;21033;-60
2022/07/13 08:24:01;;;;;;;1.00;0.90;;;;;;;22.15;56.79;98747.30;1647142;86;21952;-61
2022/07/13 08:26:28;;;;;;;0.70;0.70;;;;;;;22.07;56.37;98745.91;1634544;85;20994;-61
2022/07/13 08:28:57;;;;;;;2.98;0.70;;;;;;;21.94;56.30;98749.53;1626961;86;21485;-61
2022/07/13 08:31:24;;;;;;;4.47;0.60;;;;;;;21.85;56.79;98747.81;1645149;85;21516;-59
2022/07/13 08:39:24;;;;;;;2.42;0.37;;;;;;;21.80;56.91;98748.31;1633349;86;21566;-59
2022/07/13 08:41:50;;;;;;;0.60;0.60;;;;;;;21.81;57.01;98751.81;1613716;87;21104;-59
2022/07/13 08:44:18;;;;;;;1.32;0.80;;;;;;;21.83;57.08;98749.34;1602959;87;21530;-59
2022/07/13 08:46:45;;;;;;;0.78;0.50;;;;;;;21.81;57.13;98750.47;1640488;85;21531;-58
2022/07/13 08:49:12;;;;;;;1.62;0.50;;;;;;;21.75;57.49;98755.97;1627401;86;21905;-59
2022/07/13 08:51:39;;;;;;;2.08;0.40;;;;;;;21.78;57.18;98751.14;1612655;87;21471;-59
2022/07/13 08:54:06;;;;;;;1.22;0.47;;;;;;;21.78;57.45;98764.52;1633849;86;21611;-59
2022/07/13 08:56:35;;;;;;;0.53;0.53;;;;;;;21.83;57.64;98756.03;1637076;85;21557;-59
2022/07/13 08:59:02;;;;;;;1.20;0.72;;;;;;;21.83;57.64;98756.03;1626571;87;21463;-60
2022/07/13 09:01:29;;;;;;;0.77;0.50;;;;;;;21.88;58.04;98758.21;1606864;87;21778;-59
2022/07/13 09:03:55;;;;;;;1.25;0.40;;;;;;;21.89;57.88;98755.89;1616492;87;21486;-59
2022/07/13 09:06:43;;;;;;;0.40;0.40;;;;;;;21.91;57.83;98750.70;1615909;87;21577;-58
2022/07/13 09:09:33;;;;;;;0.78;0.20;;;;;;;21.91;58.08;98748.03;1606567;87;21537;-60
2022/07/13 09:12:24;;;;;;;0.23;0.23;;;;;;;21.91;58.14;98748.54;1587521;88;21675;-59
2022/07/13 09:14:57;;;;;;;0.13;0.13;;;;;;;21.91;57.97;98752.55;1607300;87;21628;-61
2022/07/13 09:17:34;;;;;;;0.20;0.20;;;;;;;21.98;58.41;98756.23;1607692;87;21129;-60
2022/07/13 09:20:16;;;;;;;0.45;0.45;;;;;;;22.06;58.11;98742.08;1640253;86;21477;-60
2022/07/13 09:22:58;;;;;;;0.40;0.40;;;;;;;22.21;58.50;98742.28;1635798;86;21548;-60
2022/07/13 09:25:37;;;;;;;0.55;0.30;;;;;;;22.21;58.50;98742.28;1631733;86;21116;-61
2022/07/13 09:28:06;;;;;;;1.45;0.35;;;;;;;22.24;58.55;98747.32;1640071;85;22123;-60
2022/07/13 09:30:34;;;;;;;0.85;0.20;;;;;;;22.30;58.61;98736.84;1632164;85;21522;-61
2022/07/13 09:33:02;;;;;;;1.27;0.20;;;;;;;22.32;58.83;98736.66;1616705;86;21438;-60
2022/07/13 09:35:47;;;;;;;0.20;0.20;;;;;;;22.32;58.83;98736.66;1623218;86;27082;-60
2022/07/13 09:38:37;;;;;;;1.60;0.30;;;;;;;22.34;57.84;98726.14;1633405;85;21159;-61
2022/07/13 09:41:25;;;;;;;0.42;0.40;;;;;;;22.40;57.84;98730.00;1616811;86;21876;-61
2022/07/13 09:46:59;;;;;;;3.55;0.30;;;;;;;22.37;57.46;98728.16;1609061;87;21627;-60
2022/07/13 09:49:41;;;;;;;0.15;0.15;;;;;;;22.57;57.60;98735.41;1642967;85;21138;-61
2022/07/13 09:52:12;;;;;;;0.20;0.20;;;;;;;22.57;57.60;98735.41;1621644;86;21439;-61
2022/07/13 09:54:41;;;;;;;0.37;0.20;;;;;;;22.55;57.15;98731.04;1637299;85;21441;-60
2022/07/13 09:57:10;;;;;;;1.32;1.12;;;;;;;22.69;57.24;98732.73;1616540;86;21493;-60
2022/07/13 09:59:37;;;;;;;0.60;0.45;;;;;;;22.69;57.24;98732.73;1606340;87;21038;-61
2022/07/13 10:02:05;;;;;;;0.53;0.30;;;;;;;22.71;56.71;98730.72;1634006;85;21487;-61
2022/07/13 10:04:38;;;;;;;0.30;0.30;;;;;;;22.72;56.54;98729.73;1609553;87;21563;-61
2022/07/13 10:07:05;;;;;;;1.07;0.50;;;;;;;22.77;56.68;98717.99;1633804;85;21645;-61
2022/07/13 10:09:32;;;;;;;;;;;;;;;22.83;56.23;98724.53;1626516;86;21505;-61
2022/07/13 10:11:59;;;;;;;0.40;0.40;;;;;;;22.83;55.99;98733.43;1598329;87;20562;-61
2022/07/13 10:14:27;;;;;;;2.10;0.55;;;;;;;22.76;56.05;98719.02;1608291;85;21599;-65
2022/07/13 10:17:01;;;;;;;0.60;0.30;;;;;;;22.80;55.71;98720.86;1605313;87;21544;-61
2022/07/13 10:19:29;;;;;;;1.15;0.78;;;;;;;22.77;55.43;98721.18;1605059;87;21887;-62
2022/07/13 10:22:11;;;;;;;;;;;;;;;22.66;55.58;98712.48;1620360;87;21128;-61
2022/07/13 10:24:38;;;;;;;0.50;0.50;;;;;;;22.58;56.11;98720.99;1633101;85;20145;-61
2022/07/13 10:27:22;;;;;;;1.60;1.50;;;;;;;22.59;55.92;98724.02;1644780;85;20983;-60
2022/07/13 10:29:50;;;;;;;1.10;1.02;;;;;;;22.73;55.89;98719.33;1635479;85;21541;-61
2022/07/13 10:32:17;;;;;;;;;;;;;;;22.84;55.57;98706.12;1632810;86;21876;-61
2022/07/13 10:35:01;;;;;;;2.30;1.82;;;;;;;22.82;55.62;98710.30;1642605;84;20471;-61
2022/07/13 10:37:28;;;;;;;1.80;1.70;;;;;;;22.92;55.50;98702.09;1643111;84;21585;-60
2022/07/13 10:40:14;;;;;;;1.62;1.52;;;;;;;23.06;55.02;98698.78;1628208;85;21537;-61
2022/07/13 10:43:03;;;;;;;0.93;0.40;;;;;;;23.11;54.92;98694.23;1631790;85;21483;-60
2022/07/13 10:45:40;;;;;;;1.55;0.80;;;;;;;23.08;55.03;98699.95;1634729;85;21830;-63
2022/07/13 10:48:34;;;;;;;0.65;0.60;;;;;;;23.02;54.19;98705.94;1661308;84;20993;-63
2022/07/13 10:51:00;;;;;;;0.93;0.60;;;;;;;22.90;54.88;98708.95;1650537;84;20963;-64
2022/07/13 10:53:45;;;;;;;;;;;;;;;22.90;54.88;98708.95;1657566;86;21505;-64
2022/07/13 10:56:21;;;;;;;1.07;0.40;;;;;;;22.74;55.50;98698.25;1650151;84;20432;-62
2022/07/13 10:58:49;;;;;;;1.55;0.53;;;;;;;22.74;55.50;98698.25;1619674;85;21546;-62
2022/07/13 11:01:43;;;;;;;0.50;0.50;;;;;;;22.70;55.49;98688.36;1629967;85;21137;-62
2022/07/13 11:04:11;;;;;;;0.50;0.40;;;;;;;22.70;55.78;98703.61;1625994;86;21575;-62
2022/07/13 11:06:39;;;;;;;0.65;0.45;;;;;;;22.55;55.38;98715.48;1629973;86;21513;-62
2022/07/13 11:09:12;;;;;;;0.53;0.30;;;;;;;22.63;55.15;98729.38;1618974;86;21541;-63
2022/07/13 11:11:53;;;;;;;0.30;0.30;;;;;;;22.60;55.19;98716.30;1632469;86;21847;-62
2022/07/13 11:14:45;;;;;;;0.20;0.20;;;;;;;22.47;55.32;98717.64;1624141;86;21430;-63
2022/07/13 11:17:15;;;;;;;0.68;0.40;;;;;;;22.47;55.32;98717.64;1601192;88;21549;-62
2022/07/13 11:21:18;;;;;;;1.57;0.50;;;;;;;21.37;60.38;98738.81;1777750;78;23066;-62
2022/07/13 11:26:53;;;;;;;5.10;0.45;;;;;;;21.92;57.00;98721.59;1746525;80;21687;-63
2022/07/13 11:29:50;;;;;;;0.53;0.40;;;;;;;21.93;57.13;98726.47;1748771;79;21493;-63
2022/07/13 11:32:20;;;;;;;1.50;0.40;;;;;;;21.87;57.23;98720.40;1754836;79;21493;-62
2022/07/13 11:34:47;;;;;;;0.82;0.30;;;;;;;21.78;57.38;98726.23;1762642;80;21608;-63
2022/07/13 11:37:15;;;;;;;1.82;0.55;;;;;;;21.78;57.38;98726.23;1746852;79;21624;-62
2022/07/13 11:39:42;;;;;;;0.95;0.42;;;;;;;21.76;57.51;98722.38;1738364;80;21852;-63
2022/07/13 11:42:09;;;;;;;1.45;1.00;;;;;;;21.73;57.98;98717.33;1706786;79;21535;-63
2022/07/13 11:44:36;;;;;;;0.50;0.50;;;;;;;21.80;57.69;98724.73;1725920;80;21482;-61
2022/07/13 11:47:06;;;;;;;0.53;0.50;;;;;;;21.76;57.99;98726.89;1751638;80;21450;-62
2022/07/13 11:49:49;;;;;;;0.40;0.40;;;;;;;21.71;57.96;98724.67;1746614;80;21521;-62
2022/07/13 11:52:27;;;;;;;0.78;0.40;;;;;;;21.69;58.19;98717.31;1758146;80;21863;-63
2022/07/13 11:55:08;;;;;;;2.75;0.40;;;;;;;21.73;58.22;98729.88;1711845;82;21610;-61
2022/07/13 11:57:38;;;;;;;2.80;0.53;;;;;;;21.57;59.00;98723.95;1691467;83;21526;-64
2022/07/13 12:00:08;;;;;;;2.83;0.40;;;;;;;21.53;59.27;98721.22;1714437;82;21609;-63